Time;durP1;ratioP1;P1;durP2;ratioP2;P2;SDS_P1;SDS_P2;PMS_P1;PMS_P2;Temp;Humidity;BMP_temperature;BMP_pressure;BME280_temperature;BME280_humidity;BME280_pressure;Samples;Min_cycle;Max_cycle;Signal;HPM_P1;HPM_P2
2022/06/13 00:02:21;;;;;;;;;;;;;;;27.36;100.00;97841.59;5059419;28;19963;-59
2022/06/13 00:04:47;;;;;;;;;;;;;;;26.99;100.00;97857.97;5063342;28;19975;-60
2022/06/13 00:07:14;;;;;;;;;;;;;;;27.06;100.00;97868.25;5064156;28;19960;-61
2022/06/13 00:09:40;;;;;;;;;;;;;;;27.16;100.00;97895.03;5061481;28;19928;-61
2022/06/13 00:12:06;;;;;;;;;;;;;;;27.11;100.00;97907.09;5063971;28;19957;-60
2022/06/13 00:14:34;;;;;;;;;;;;;;;27.16;100.00;97911.47;5064879;28;19925;-60
2022/06/13 00:17:01;;;;;;;;;;;;;;;27.17;100.00;97932.25;5064712;28;19925;-60
2022/06/13 00:19:27;;;;;;;;;;;;;;;26.95;100.00;97942.13;5062134;28;20488;-60
2022/06/13 00:21:53;;;;;;;;;;;;;;;26.95;100.00;97946.81;5061123;28;19992;-60
2022/06/13 00:24:20;;;;;;;;;;;;;;;26.81;100.00;97937.22;5062600;28;19921;-60
2022/06/13 00:26:46;;;;;;;;;;;;;;;26.87;100.00;97947.84;5064559;28;19928;-60
2022/06/13 00:29:12;;;;;;;;;;;;;;;26.99;100.00;97962.13;5063745;28;19932;-59
2022/06/13 00:31:41;;;;;;;;;;;;;;;27.07;100.00;97980.28;5060014;28;19960;-60
2022/06/13 00:34:07;;;;;;;;;;;;;;;26.89;100.00;97992.94;5060989;28;19925;-59
2022/06/13 00:36:33;;;;;;;;;;;;;;;26.78;100.00;97970.00;5064225;28;19972;-59
2022/06/13 00:39:00;;;;;;;;;;;;;;;26.58;100.00;97955.63;5064272;28;19925;-59
2022/06/13 00:41:27;;;;;;;;;;;;;;;26.51;100.00;97939.06;5061781;28;19925;-59
2022/06/13 00:43:55;;;;;;;;;;;;;;;26.39;100.00;97931.03;5070884;28;20012;-59
2022/06/13 00:46:22;;;;;;;;;;;;;;;26.49;100.00;97915.94;5062049;28;19948;-59
2022/06/13 00:48:51;;;;;;;;;;;;;;;26.52;100.00;97934.38;5064086;28;19925;-59
2022/06/13 00:51:18;;;;;;;;;;;;;;;26.39;100.00;97930.25;5062867;28;19968;-59
2022/06/13 00:53:45;;;;;;;;;;;;;;;26.46;100.00;97911.97;5060560;28;19925;-59
2022/06/13 00:56:15;;;;;;;;;;;;;;;26.49;100.00;97902.25;5060723;28;19952;-59
2022/06/13 00:58:45;;;;;;;;;;;;;;;26.54;100.00;97910.13;5063879;28;19964;-59
2022/06/13 01:01:11;;;;;;;;;;;;;;;26.55;100.00;97912.53;5063215;28;19925;-59
2022/06/13 01:03:38;;;;;;;;;;;;;;;26.54;100.00;97910.94;5060304;28;19925;-58
2022/06/13 01:06:07;;;;;;;;;;;;;;;26.49;100.00;97908.50;5060286;28;19925;-59
2022/06/13 01:08:36;;;;;;;;;;;;;;;26.52;100.00;97896.78;5063583;28;19925;-59
2022/06/13 01:11:18;;;;;;;;;;;;;;;26.44;100.00;97900.59;5063483;28;19939;-59
2022/06/13 01:13:54;;;;;;;;;;;;;;;26.54;100.00;97902.72;5063351;28;19929;-59
2022/06/13 01:16:27;;;;;;;;;;;;;;;26.22;100.00;97888.50;5061021;28;19932;-59
2022/06/13 01:19:01;;;;;;;;;;;;;;;25.87;100.00;97881.59;5063366;28;19925;-59
2022/06/13 01:21:35;;;;;;;;;;;;;;;25.83;100.00;97875.25;5060977;28;19921;-59
2022/06/13 01:24:22;;;;;;;;;;;;;;;25.67;100.00;97869.88;5060049;28;19951;-60
2022/06/13 01:26:59;;;;;;;;;;;;;;;25.70;100.00;97864.50;5048079;28;19925;-59
2022/06/13 01:29:45;;;;;;;;;;;;;;;25.30;100.00;97866.81;5051703;28;19926;-59
2022/06/13 01:32:18;;;;;;;;;;;;;;;25.37;100.00;97858.75;5051621;28;19952;-60
2022/06/13 01:34:49;;;;;;;;;;;;;;;25.60;100.00;97873.28;5051396;28;19925;-59
2022/06/13 01:37:23;;;;;;;;;;;;;;;25.32;100.00;97878.16;5051325;28;19928;-60
2022/06/13 01:40:00;;;;;;;;;;;;;;;25.56;100.00;97877.13;5051228;28;19925;-60
2022/06/13 01:42:32;;;;;;;;;;;;;;;25.82;100.00;97881.88;5056823;28;20419;-60
2022/06/13 01:45:06;;;;;;;;;;;;;;;26.10;100.00;97901.53;5062945;28;20024;-60
2022/06/13 01:47:38;;;;;;;;;;;;;;;26.25;100.00;97904.19;5059660;28;19957;-60
2022/06/13 01:50:12;;;;;;;;;;;;;;;26.39;100.00;97908.34;5059417;28;19932;-60
2022/06/13 01:52:50;;;;;;;;;;;;;;;26.40;100.00;97927.13;5059484;28;19925;-60
2022/06/13 01:55:22;;;;;;;;;;;;;;;26.43;100.00;97953.78;5060374;28;19932;-60
2022/06/13 01:57:51;;;;;;;;;;;;;;;26.37;100.00;97990.06;5062818;28;19925;-60
2022/06/13 02:00:19;;;;;;;;;;;;;;;26.27;100.00;98024.31;5061639;28;19925;-60
2022/06/13 02:02:50;;;;;;;;;;;;;;;26.25;100.00;98062.19;5059350;28;19925;-60
2022/06/13 02:05:18;;;;;;;;;;;;;;;25.97;100.00;98070.59;5059151;28;19929;-59
2022/06/13 02:07:47;;;;;;;;;;;;;;;26.00;100.00;98056.19;5062620;28;20352;-59
2022/06/13 02:10:15;;;;;;;;;;;;;;;26.08;100.00;98043.47;5061711;28;19932;-59
2022/06/13 02:12:44;;;;;;;;;;;;;;;25.98;100.00;98041.28;5063507;28;19956;-59
2022/06/13 02:15:14;;;;;;;;;;;;;;;26.00;100.00;98038.97;5062098;28;19931;-59
2022/06/13 02:17:42;;;;;;;;;;;;;;;26.10;100.00;98035.66;5058870;28;20410;-59
2022/06/13 02:20:12;;;;;;;;;;;;;;;26.09;100.00;98032.13;5058861;28;19925;-59
2022/06/13 02:22:42;;;;;;;;;;;;;;;26.14;100.00;98028.31;5050518;28;19925;-59
2022/06/13 02:25:11;;;;;;;;;;;;;;;25.92;100.00;98027.09;5049467;28;19921;-59
2022/06/13 02:27:38;;;;;;;;;;;;;;;25.97;100.00;98042.44;5049689;28;19956;-59
2022/06/13 02:30:06;;;;;;;;;;;;;;;26.08;100.00;98051.66;5074138;28;19963;-59
2022/06/13 02:32:36;;;;;;;;;;;;;;;26.06;100.00;98054.75;5061876;28;20072;-59
2022/06/13 02:35:05;;;;;;;;;;;;;;;25.98;100.00;98060.44;5061923;28;19928;-59
2022/06/13 02:37:36;;;;;;;;;;;;;;;25.98;100.00;98058.50;5058939;28;19975;-59
2022/06/13 02:40:04;;;;;;;;;;;;;;;25.92;100.00;98042.72;5058657;28;19999;-60
2022/06/13 02:42:34;;;;;;;;;;;;;;;25.75;100.00;98014.63;5064804;28;19920;-59
2022/06/13 02:45:02;;;;;;;;;;;;;;;25.80;100.00;97993.63;5061946;28;19921;-59
2022/06/13 02:47:31;;;;;;;;;;;;;;;25.77;100.00;97973.25;5059378;28;19964;-59
2022/06/13 02:49:59;;;;;;;;;;;;;;;25.61;100.00;97967.06;5058570;28;19992;-59
2022/06/13 02:52:28;;;;;;;;;;;;;;;25.64;100.00;97958.94;5060824;28;19979;-60
2022/06/13 02:54:57;;;;;;;;;;;;;;;25.68;100.00;97962.53;5062087;28;19932;-59
2022/06/13 02:57:34;;;;;;;;;;;;;;;25.29;100.00;97933.53;5059995;28;19925;-59
2022/06/13 03:00:06;;;;;;;;;;;;;;;24.66;100.00;97914.53;5058517;28;19948;-59
2022/06/13 03:02:40;;;;;;;;;;;;;;;23.80;100.00;97923.63;5061601;28;19932;-60
2022/06/13 03:05:09;;;;;;;;;;;;;;;24.09;100.00;97900.63;5060932;28;19925;-60
2022/06/13 03:07:38;;;;;;;;;;;;;;;23.55;100.00;97898.41;5058493;28;19925;-60
2022/06/13 03:10:09;;;;;;;;;;;;;;;23.15;100.00;97892.16;5058336;28;20403;-60
2022/06/13 03:12:40;;;;;;;;;;;;;;;22.45;100.00;97874.47;5061783;28;19929;-60
2022/06/13 03:15:10;;;;;;;;;;;;;;;23.12;100.00;97887.41;5061825;28;20451;-60
2022/06/13 03:17:40;;;;;;;;;;;;;;;23.61;100.00;97905.19;5061630;28;19989;-60
2022/06/13 03:20:10;;;;;;;;;;;;;;;23.59;100.00;97904.78;5061860;28;19956;-60
2022/06/13 03:22:40;;;;;;;;;;;;;;;24.14;100.00;97898.47;5061459;28;19925;-59
2022/06/13 03:25:10;;;;;;;;;;;;;;;24.48;100.00;97915.28;5061644;28;19932;-60
2022/06/13 03:27:39;;;;;;;;;;;;;;;24.51;100.00;97915.34;5058275;28;19992;-60
2022/06/13 03:30:07;;;;;;;;;;;;;;;24.63;100.00;97909.78;5058182;28;19925;-60
2022/06/13 03:32:36;;;;;;;;;;;;;;;25.05;100.00;97923.66;5061536;28;19967;-60
2022/06/13 03:35:04;;;;;;;;;;;;;;;25.27;100.00;97924.94;5061591;28;19931;-60
2022/06/13 03:37:32;;;;;;;;;;;;;;;25.42;100.00;97915.06;5058559;28;19932;-60
2022/06/13 03:40:01;;;;;;;;;;;;;;;25.43;100.00;97922.94;5060281;28;19925;-59
2022/06/13 03:42:31;;;;;;;;;;;;;;;25.32;100.00;97910.97;5067384;28;19925;-59
2022/06/13 03:45:00;;;;;;;;;;;;;;;24.80;100.00;97910.56;5065088;28;19932;-60
2022/06/13 03:47:30;;;;;;;;;;;;;;;25.12;100.00;97912.09;5063009;28;19947;-60
2022/06/13 03:49:59;;;;;;;;;;;;;;;25.27;100.00;97935.84;5061779;28;20375;-60
2022/06/13 03:52:28;;;;;;;;;;;;;;;25.37;100.00;97940.75;5063876;28;19925;-59
2022/06/13 03:54:58;;;;;;;;;;;;;;;25.46;100.00;97944.06;5065060;28;19921;-59
2022/06/13 03:57:27;;;;;;;;;;;;;;;25.43;100.00;97953.00;5062919;28;19933;-59
2022/06/13 03:59:57;;;;;;;;;;;;;;;25.34;100.00;97957.09;5061416;28;19951;-60
2022/06/13 04:02:25;;;;;;;;;;;;;;;25.35;100.00;97962.19;5063308;28;19947;-60
2022/06/13 04:04:53;;;;;;;;;;;;;;;25.37;100.00;97959.09;5065060;28;19972;-60
2022/06/13 04:07:21;;;;;;;;;;;;;;;25.32;100.00;97960.16;5063454;28;19948;-60
2022/06/13 04:09:49;;;;;;;;;;;;;;;25.32;100.00;97968.38;5060378;28;20000;-60
2022/06/13 04:12:24;;;;;;;;;;;;;;;25.37;100.00;97962.63;5065225;28;19925;-60
2022/06/13 04:15:07;;;;;;;;;;;;;;;25.25;100.00;97962.78;5064672;28;19932;-60
2022/06/13 04:17:37;;;;;;;;;;;;;;;25.09;100.00;97972.94;5061266;28;19964;-60
2022/06/13 04:20:10;;;;;;;;;;;;;;;24.97;100.00;97964.84;5061129;28;19963;-60
2022/06/13 04:22:40;;;;;;;;;;;;;;;25.13;100.00;97960.13;5061165;28;19925;-60
2022/06/13 04:25:14;;;;;;;;;;;;;;;25.11;100.00;97957.78;5061040;28;19936;-60
2022/06/13 04:27:45;;;;;;;;;;;;;;;24.79;100.00;97936.31;5061093;28;19929;-60
2022/06/13 04:30:14;;;;;;;;;;;;;;;25.23;100.00;97940.44;5061158;28;19932;-60
2022/06/13 04:32:44;;;;;;;;;;;;;;;24.99;100.00;97932.50;5064525;28;19925;-60
2022/06/13 04:35:11;;;;;;;;;;;;;;;25.17;100.00;97942.69;5064180;28;19936;-60
2022/06/13 04:37:38;;;;;;;;;;;;;;;25.19;100.00;97945.84;5060917;28;19971;-60
2022/06/13 04:40:07;;;;;;;;;;;;;;;25.18;100.00;97943.47;5061234;28;19996;-60
2022/06/13 04:42:34;;;;;;;;;;;;;;;25.29;100.00;97940.94;5067318;28;19942;-60
2022/06/13 04:45:03;;;;;;;;;;;;;;;25.10;100.00;97947.19;5064391;28;19960;-60
2022/06/13 04:47:31;;;;;;;;;;;;;;;24.93;100.00;97942.13;5061588;28;19928;-60
2022/06/13 04:49:58;;;;;;;;;;;;;;;24.81;100.00;97958.59;5060590;28;19928;-59
2022/06/13 04:52:26;;;;;;;;;;;;;;;24.97;100.00;97948.47;5062414;28;19924;-60
2022/06/13 04:54:55;;;;;;;;;;;;;;;24.92;100.00;97956.91;5064373;28;19992;-59
2022/06/13 04:57:22;;;;;;;;;;;;;;;24.90;100.00;97965.47;5062515;28;19932;-60
2022/06/13 04:59:48;;;;;;;;;;;;;;;24.50;100.00;97965.66;5061005;28;20448;-60
2022/06/13 05:02:17;;;;;;;;;;;;;;;24.69;100.00;97954.81;5061201;28;19940;-60
2022/06/13 05:04:46;;;;;;;;;;;;;;;24.85;100.00;97962.25;5064101;28;19929;-59
2022/06/13 05:07:14;;;;;;;;;;;;;;;24.93;100.00;97953.84;5063474;28;19959;-60
2022/06/13 05:09:42;;;;;;;;;;;;;;;24.87;100.00;97949.00;5060540;28;20002;-60
2022/06/13 05:12:11;;;;;;;;;;;;;;;24.93;100.00;97951.13;5063440;28;19925;-60
2022/06/13 05:14:40;;;;;;;;;;;;;;;24.87;100.00;97955.25;5060477;28;19925;-60
2022/06/13 05:17:18;;;;;;;;;;;;;;;24.73;100.00;97965.03;5060224;28;19985;-60
2022/06/13 05:19:50;;;;;;;;;;;;;;;24.88;100.00;97969.72;5052162;28;20232;-60
2022/06/13 05:22:27;;;;;;;;;;;;;;;24.49;100.00;97964.06;5052042;28;19932;-59
2022/06/13 05:25:11;;;;;;;;;;;;;;;24.64;100.00;97968.72;5051994;28;19925;-60
2022/06/13 05:27:38;;;;;;;;;;;;;;;24.73;100.00;97965.81;5053621;28;20667;-60
2022/06/13 05:30:05;;;;;;;;;;;;;;;24.61;100.00;97950.31;5060190;28;19932;-60
2022/06/13 05:32:32;;;;;;;;;;;;;;;24.92;100.00;97968.66;5063141;28;19998;-60
2022/06/13 05:35:01;;;;;;;;;;;;;;;24.49;100.00;97964.06;5062432;28;19991;-60
2022/06/13 05:37:27;;;;;;;;;;;;;;;24.59;100.00;97962.75;5060950;28;19988;-59
2022/06/13 05:39:54;;;;;;;;;;;;;;;24.46;100.00;97977.63;5059955;28;19925;-59
2022/06/13 05:42:20;;;;;;;;;;;;;;;24.62;100.00;97965.56;5064574;28;19929;-59
2022/06/13 05:44:47;;;;;;;;;;;;;;;24.63;100.00;97971.84;5063318;28;19932;-60
2022/06/13 05:47:16;;;;;;;;;;;;;;;24.67;100.00;97962.56;5062450;28;20361;-60
2022/06/13 05:49:42;;;;;;;;;;;;;;;24.79;100.00;97977.28;5059879;28;19926;-60
2022/06/13 05:52:10;;;;;;;;;;;;;;;25.21;100.00;97972.81;5059869;28;19933;-60
2022/06/13 05:54:36;;;;;;;;;;;;;;;24.78;100.00;97973.75;5051564;28;19925;-61
2022/06/13 05:57:03;;;;;;;;;;;;;;;24.85;100.00;97973.16;5051202;28;19925;-60
2022/06/13 05:59:30;;;;;;;;;;;;;;;25.14;100.00;97969.91;5051371;28;19995;-60
2022/06/13 06:01:56;;;;;;;;;;;;;;;25.05;100.00;97974.78;5050982;28;19941;-60
2022/06/13 06:04:23;;;;;;;;;;;;;;;25.29;100.00;97980.03;5051444;28;19921;-60
2022/06/13 06:06:49;;;;;;;;;;;;;;;25.14;100.00;97978.91;5051303;28;19955;-60
2022/06/13 06:09:17;;;;;;;;;;;;;;;25.06;100.00;97979.13;5051140;28;19936;-59
2022/06/13 06:11:44;;;;;;;;;;;;;;;25.40;100.00;97988.47;5051113;28;19925;-59
2022/06/13 06:14:10;;;;;;;;;;;;;;;25.38;100.00;97985.31;5062563;28;20031;-59
2022/06/13 06:16:37;;;;;;;;;;;;;;;25.14;100.00;97986.31;5063045;28;19960;-59
2022/06/13 06:19:03;;;;;;;;;;;;;;;25.21;100.00;97983.75;5062684;28;19935;-59
2022/06/13 06:21:29;;;;;;;;;;;;;;;25.21;100.00;97981.03;5060152;28;19952;-60
2022/06/13 06:23:56;;;;;;;;;;;;;;;25.46;100.00;97982.38;5059179;28;19951;-59
2022/06/13 06:26:25;;;;;;;;;;;;;;;25.53;100.00;97987.22;5060989;28;19964;-59
2022/06/13 06:28:52;;;;;;;;;;;;;;;25.51;100.00;97989.50;5062399;28;19924;-59
2022/06/13 06:31:18;;;;;;;;;;;;;;;25.62;100.00;97991.34;5061260;28;19921;-59
2022/06/13 06:33:45;;;;;;;;;;;;;;;25.75;100.00;97997.44;5059069;28;19925;-59
2022/06/13 06:36:12;;;;;;;;;;;;;;;26.02;100.00;97995.63;5059098;28;19925;-59
2022/06/13 06:38:39;;;;;;;;;;;;;;;26.03;100.00;97994.47;5062226;28;19926;-59
2022/06/13 06:41:05;;;;;;;;;;;;;;;26.12;100.00;97998.56;5062248;28;19925;-60
2022/06/13 06:43:33;;;;;;;;;;;;;;;25.75;100.00;98000.97;5062565;28;19955;-60
2022/06/13 06:45:59;;;;;;;;;;;;;;;25.96;100.00;97988.88;5058518;28;19952;-60
2022/06/13 06:48:26;;;;;;;;;;;;;;;26.06;100.00;97988.25;5060864;28;19932;-60
2022/06/13 06:50:53;;;;;;;;;;;;;;;26.19;100.00;97995.19;5062024;28;20416;-60
2022/06/13 06:53:20;;;;;;;;;;;;;;;26.07;100.00;97984.38;5060610;28;19925;-60
2022/06/13 07:01:18;;;;;;;;;;;;;;;26.08;100.00;97983.25;5060987;28;19935;-60
2022/06/13 07:03:44;;;;;;;;;;;;;;;25.86;100.00;97995.72;5058526;28;19989;-60
2022/06/13 07:06:11;;;;;;;;;;;;;;;25.80;100.00;97993.63;5058444;28;19996;-60
2022/06/13 07:08:38;;;;;;;;;;;;;;;25.95;98.78;97987.28;5061785;28;19982;-60
2022/06/13 07:13:49;;;;;;;;;;;;;;;26.16;96.43;97982.25;5042797;28;20187;-60
2022/06/13 07:16:17;;;;;;;;;;;;;;;26.48;94.69;97988.28;5058909;28;19929;-60
2022/06/13 07:18:45;;;;;;;;;;;;;;;26.55;92.55;97985.69;5061533;28;19921;-60
2022/06/13 07:21:11;;;;;;;;;;;;;;;26.62;92.19;97989.31;5061421;28;19928;-60
2022/06/13 07:23:38;;;;;;;;;;;;;;;26.73;90.88;97992.25;5058255;28;19936;-60
2022/06/13 07:26:05;;;;;;;;;;;;;;;26.93;89.56;97988.28;5058233;28;19925;-60
2022/06/13 07:28:31;;;;;;;;;;;;;;;26.75;85.82;97993.47;5061033;28;19951;-60
2022/06/13 07:30:57;;;;;;;;;;;;;;;26.51;91.13;97987.56;5061468;28;19986;-60
2022/06/13 07:33:25;;;;;;;;;;;;;;;26.75;91.05;97992.66;5059679;28;19988;-60
2022/06/13 07:35:52;;;;;;;;;;;;;;;26.87;90.13;97995.22;5058074;28;19929;-60
2022/06/13 07:38:18;;;;;;;;;;;;;;;26.89;88.98;97997.63;5059138;28;19960;-60
2022/06/13 07:40:46;;;;;;;;;;;;;;;26.90;88.21;97989.03;5061567;28;19924;-60
2022/06/13 07:43:17;;;;;;;;;;;;;;;27.04;86.83;97999.41;5064291;28;19951;-60
2022/06/13 07:45:44;;;;;;;;;;;;;;;26.94;85.76;97981.66;5057690;28;19925;-60
2022/06/13 07:48:10;;;;;;;;;;;;;;;26.55;81.93;97985.69;5057596;28;19932;-60
2022/06/13 07:50:40;;;;;;;;;;;;;;;26.75;87.57;97987.97;5060031;28;19931;-60
2022/06/13 07:53:06;;;;;;;;;;;;;;;27.17;84.16;97981.59;5061020;28;19929;-60
2022/06/13 07:55:33;;;;;;;;;;;;;;;27.16;83.43;97991.78;5057964;28;19925;-60
2022/06/13 07:57:59;;;;;;;;;;;;;;;27.31;82.59;97992.75;5056346;28;19961;-60
2022/06/13 08:00:27;;;;;;;;;;;;;;;26.81;81.76;97997.50;5059622;28;20322;-60
2022/06/13 08:02:54;;;;;;;;;;;;;;;26.79;84.01;97986.09;5061137;28;19929;-60
2022/06/13 08:05:21;;;;;;;;;;;;;;;26.48;77.65;97982.81;5059558;28;19931;-60
2022/06/13 08:07:48;;;;;;;;;;;;;;;26.59;84.45;97984.56;5057603;28;19940;-60
2022/06/13 08:10:15;;;;;;;;;;;;;;;26.47;80.15;97989.44;5058187;28;19936;-60
2022/06/13 08:12:42;;;;;;;;;;;;;;;26.74;84.37;97997.34;5064408;28;19947;-60
2022/06/13 08:15:10;;;;;;;;;;;;;;;26.34;83.03;97999.78;5060777;28;19925;-60
2022/06/13 08:17:36;;;;;;;;;;;;;;;26.48;85.11;98008.25;5048991;28;19929;-60
2022/06/13 08:20:03;;;;;;;;;;;;;;;26.83;83.35;97997.91;5049116;28;19921;-60
2022/06/13 08:22:29;;;;;;;;;;;;;;;27.06;80.90;98006.13;5049018;28;20099;-60
2022/06/13 08:24:57;;;;;;;;;;;;;;;27.13;80.26;98008.16;5049060;28;20036;-60
2022/06/13 08:27:26;;;;;;;;;;;;;;;27.42;78.11;98010.16;5051971;28;19925;-60
2022/06/13 08:29:52;;;;;;;;;;;;;;;27.07;75.78;98012.38;5052635;28;19964;-60
2022/06/13 08:32:19;;;;;;;;;;;;;;;27.29;77.87;98014.28;5052505;28;19925;-58
2022/06/13 08:34:45;;;;;;;;;;;;;;;27.66;73.45;98006.22;5052520;28;19967;-59
2022/06/13 08:37:11;;;;;;;;;;;;;;;27.79;72.65;98011.06;5052286;28;19940;-60
2022/06/13 08:39:38;;;;;;;;;;;;;;;27.36;72.01;98006.16;5052740;28;19928;-60
2022/06/13 08:42:07;;;;;;;;;;;;;;;27.62;74.25;98011.66;5054971;28;19936;-60
2022/06/13 08:44:38;;;;;;;;;;;;;;;27.30;72.70;98018.59;5064203;28;19925;-60
2022/06/13 08:47:11;;;;;;;;;;;;;;;26.66;74.65;98014.84;5064066;28;19937;-58
2022/06/13 08:49:41;;;;;;;;;;;;;;;27.43;72.39;98022.75;5060710;28;20559;-59
2022/06/13 08:52:18;;;;;;;;;;;;;;;27.19;69.73;98017.66;5060377;28;19921;-59
2022/06/13 08:54:48;;;;;;;;;;;;;;;27.12;75.64;98023.03;5052231;28;19925;-60
2022/06/13 08:57:16;;;;;;;;;;;;;;;27.92;71.68;98022.59;5052059;28;19929;-60
2022/06/13 08:59:45;;;;;;;;;;;;;;;28.06;70.38;98019.28;5052118;28;19929;-59
2022/06/13 09:02:14;;;;;;;;;;;;;;;28.11;69.47;98024.41;5052058;28;19971;-59
2022/06/13 09:04:42;;;;;;;;;;;;;;;28.17;68.47;98025.66;5052204;28;19921;-59
2022/06/13 09:07:12;;;;;;;;;;;;;;;28.27;66.82;98019.50;5051839;28;19925;-59
2022/06/13 09:09:42;;;;;;;;;;;;;;;28.25;66.92;98022.63;5060134;28;19932;-59
2022/06/13 09:12:09;;;;;;;;;;;;;;;28.00;64.41;98023.47;5062934;28;19947;-59
2022/06/13 09:14:40;;;;;;;;;;;;;;;27.76;68.11;98027.50;5059957;28;20020;-59
2022/06/13 09:17:10;;;;;;;;;;;;;;;27.09;69.64;98029.25;5058540;28;19929;-60
2022/06/13 09:19:40;;;;;;;;;;;;;;;27.79;68.27;98029.50;5051678;28;19929;-59
2022/06/13 09:22:09;;;;;;;;;;;;;;;27.69;65.56;98028.22;5066658;28;20667;-59
2022/06/13 09:24:41;;;;;;;;;;;;;;;27.45;67.01;98036.09;5051852;28;19964;-59
2022/06/13 09:27:10;;;;;;;;;;;;;;;27.71;65.66;98041.53;5051590;28;19928;-59
2022/06/13 09:29:41;;;;;;;;;;;;;;;27.54;62.33;98033.88;5051728;28;19925;-60
2022/06/13 09:32:11;;;;;;;;;;;;;;;27.57;64.99;98030.38;5051709;28;19921;-60
2022/06/13 09:34:40;;;;;;;;;;;;;;;27.84;64.60;98032.72;5055217;28;19929;-59
2022/06/13 09:37:09;;;;;;;;;;;;;;;27.57;64.05;98036.66;5062574;28;19936;-60
2022/06/13 09:39:36;;;;;;;;;;;;;;;27.81;61.84;98032.66;5059759;28;19984;-59
2022/06/13 09:42:10;;;;;;;;;;;;;;;27.25;61.41;98030.69;5061860;28;19924;-60
2022/06/13 09:44:44;;;;;;;;;;;;;;;27.15;61.87;98027.78;5051347;28;19967;-60
2022/06/13 09:47:14;;;;;;;;;;;;;;;27.44;62.85;98032.56;5051220;28;19953;-60
2022/06/13 09:49:46;;;;;;;;;;;;;;;27.75;62.02;98023.97;5051405;28;19984;-60
2022/06/13 09:52:15;;;;;;;;;;;;;;;28.04;60.20;98018.84;5051316;28;20012;-60
2022/06/13 09:54:46;;;;;;;;;;;;;;;28.08;60.18;98022.41;5051315;28;19932;-60
2022/06/13 09:57:18;;;;;;;;;;;;;;;28.32;59.56;98016.41;5051183;28;20274;-60
2022/06/13 09:59:58;;;;;;;;;;;;;;;28.36;58.93;98017.25;5051172;28;19953;-60
2022/06/13 10:02:26;;;;;;;;;;;;;;;28.37;58.87;98041.59;5051240;28;19932;-60
2022/06/13 10:05:01;;;;;;;;;;;;;;;28.03;59.42;98028.22;5050865;28;19925;-60
2022/06/13 10:07:33;;;;;;;;;;;;;;;28.09;59.00;98022.06;5050937;28;19929;-60
2022/06/13 10:10:03;;;;;;;;;;;;;;;28.20;58.17;98024.91;5050959;28;20622;-60
2022/06/13 10:12:36;;;;;;;;;;;;;;;27.67;52.17;98018.75;5061666;28;19925;-60
2022/06/13 10:15:12;;;;;;;;;;;;;;;27.71;56.66;98022.34;5062643;28;19987;-60
2022/06/13 10:17:52;;;;;;;;;;;;;;;27.70;56.74;98027.03;5059261;28;19925;-60
2022/06/13 10:20:23;;;;;;;;;;;;;;;27.06;53.75;98024.50;5060153;28;19996;-60
2022/06/13 10:22:55;;;;;;;;;;;;;;;27.05;56.17;98028.44;5062522;28;19951;-60
2022/06/13 10:25:30;;;;;;;;;;;;;;;27.31;55.38;98017.44;5060842;28;19925;-60
2022/06/13 10:28:05;;;;;;;;;;;;;;;27.52;53.41;98011.50;5058963;28;19925;-60
2022/06/13 10:30:39;;;;;;;;;;;;;;;27.83;54.27;98014.66;5061778;28;19960;-60
2022/06/13 10:33:11;;;;;;;;;;;;;;;27.92;51.97;98016.31;5062322;28;19924;-60
2022/06/13 10:35:45;;;;;;;;;;;;;;;27.87;51.83;98023.72;5074586;28;20012;-60
2022/06/13 10:38:20;;;;;;;;;;;;;;;27.72;49.02;98024.72;5058628;28;20052;-60
2022/06/13 10:40:47;;;;;;;;;;;;;;;27.17;47.37;98030.97;5062472;28;19978;-60
2022/06/13 10:43:13;;;;;;;;;;;;;;;27.47;50.03;98022.78;5065178;28;19931;-60
2022/06/13 10:45:42;;;;;;;;;;;;;;;27.79;49.31;98022.03;5058539;28;19948;-60
2022/06/13 10:48:13;;;;;;;;;;;;;;;27.73;47.55;98028.25;5058155;28;20019;-60
2022/06/13 10:50:42;;;;;;;;;;;;;;;27.19;45.44;98020.41;5058606;28;19960;-60
2022/06/13 10:53:13;;;;;;;;;;;;;;;27.56;48.71;98015.09;5058761;28;19932;-60
2022/06/13 10:55:41;;;;;;;;;;;;;;;27.57;45.81;98016.66;5058810;28;20168;-60
2022/06/13 10:58:12;;;;;;;;;;;;;;;27.40;45.96;98026.19;5058423;28;19948;-60
2022/06/13 11:00:41;;;;;;;;;;;;;;;27.71;47.88;98031.34;5058794;28;19925;-60
2022/06/13 11:03:12;;;;;;;;;;;;;;;27.85;46.42;98023.28;5058480;28;19948;-60
2022/06/13 11:05:49;;;;;;;;;;;;;;;27.94;46.51;98022.22;5050283;28;20288;-60
2022/06/13 11:08:16;;;;;;;;;;;;;;;27.92;46.33;98028.09;5050253;28;19925;-60
2022/06/13 11:10:51;;;;;;;;;;;;;;;28.14;46.64;98016.22;5050386;28;19952;-60
2022/06/13 11:13:24;;;;;;;;;;;;;;;28.23;47.11;98019.47;5061803;28;20585;-60
2022/06/13 11:24:14;;;;;;;;;;;;;;;28.14;46.19;98027.19;5061433;28;20004;-61
2022/06/13 11:29:26;;;;;;;;;;;;;;;27.94;46.07;98031.25;5060454;28;19940;-60
2022/06/13 11:31:55;;;;;;;;;;;;;;;27.82;45.61;98032.28;5060338;28;19921;-61
2022/06/13 11:34:24;;;;;;;;;;;;;;;27.87;46.45;98036.66;5060076;28;19925;-60
2022/06/13 11:36:57;;;;;;;;;;;;;;;27.86;45.25;98032.31;5058288;28;19997;-60
2022/06/13 11:39:30;;;;;;;;;;;;;;;27.74;45.09;98038.06;5059944;28;19955;-60
2022/06/13 11:41:57;;;;;;;;;;;;;;;27.82;45.29;98035.03;5061521;28;19925;-60
2022/06/13 11:44:25;;;;;;;;;;;;;;;27.94;46.02;98041.44;5061570;28;19921;-60
2022/06/13 11:46:57;;;;;;;;;;;;;;;27.64;44.80;98031.25;5061369;28;19924;-60
2022/06/13 11:49:28;;;;;;;;;;;;;;;27.66;45.78;98028.16;5059833;28;19939;-59
2022/06/13 11:51:57;;;;;;;;;;;;;;;27.77;44.82;98040.84;5058027;28;19992;-60
2022/06/13 11:54:25;;;;;;;;;;;;;;;27.54;44.67;98034.66;5059704;28;19968;-59
2022/06/13 11:57:10;;;;;;;;;;;;;;;27.27;42.24;98036.59;5061577;28;19928;-59
2022/06/13 11:59:43;;;;;;;;;;;;;;;27.32;44.67;98039.03;5050265;28;19925;-59
2022/06/13 12:02:18;;;;;;;;;;;;;;;27.35;43.85;98043.78;5053493;28;19929;-59
2022/06/13 12:04:46;;;;;;;;;;;;;;;27.50;43.72;98047.53;5061864;28;19952;-59
2022/06/13 12:07:21;;;;;;;;;;;;;;;27.47;44.29;98059.25;5062000;28;19935;-59
2022/06/13 12:09:52;;;;;;;;;;;;;;;27.49;44.15;98037.72;5065156;28;19931;-59
2022/06/13 12:12:18;;;;;;;;;;;;;;;27.23;44.26;98046.69;5064899;28;19925;-59
2022/06/13 12:14:45;;;;;;;;;;;;;;;27.39;44.12;98046.53;5065208;28;19925;-59
2022/06/13 12:17:18;;;;;;;;;;;;;;;27.53;44.24;98035.03;5064981;28;19984;-59
2022/06/13 12:19:50;;;;;;;;;;;;;;;27.64;44.22;98036.75;5061669;28;19925;-60
2022/06/13 12:22:19;;;;;;;;;;;;;;;27.62;43.02;98041.81;5062296;28;19925;-59
2022/06/13 12:24:52;;;;;;;;;;;;;;;27.56;43.24;98043.31;5065062;28;19978;-60
2022/06/13 12:27:27;;;;;;;;;;;;;;;27.66;43.50;98053.66;5063774;28;19996;-60
2022/06/13 12:30:04;;;;;;;;;;;;;;;27.60;42.11;98049.66;5061395;28;19932;-60
2022/06/13 12:32:32;;;;;;;;;;;;;;;27.56;40.95;98039.78;5064124;28;19975;-60
2022/06/13 12:35:09;;;;;;;;;;;;;;;27.62;40.78;98049.25;5064699;28;19964;-60
2022/06/13 12:37:41;;;;;;;;;;;;;;;27.45;42.44;98053.31;5060997;28;19925;-60
2022/06/13 12:40:16;;;;;;;;;;;;;;;26.91;41.62;98056.38;5060792;28;19932;-60
2022/06/13 12:42:58;;;;;;;;;;;;;;;27.10;42.70;98056.31;5059726;28;19935;-60
2022/06/13 12:45:36;;;;;;;;;;;;;;;27.36;42.63;98061.00;5069180;28;19978;-60
2022/06/13 12:48:09;;;;;;;;;;;;;;;26.95;41.90;98061.94;5063917;28;19989;-60
2022/06/13 12:50:45;;;;;;;;;;;;;;;26.75;43.98;98059.22;5060854;28;19925;-59
2022/06/13 12:53:29;;;;;;;;;;;;;;;27.11;42.62;98076.31;5067568;28;19988;-60
2022/06/13 12:55:58;;;;;;;;;;;;;;;27.03;41.86;98063.63;5063952;28;19947;-60
2022/06/13 12:58:35;;;;;;;;;;;;;;;26.76;40.91;98071.78;5062199;28;19932;-60
2022/06/13 13:01:03;;;;;;;;;;;;;;;27.01;42.98;98090.63;5060235;28;19936;-60
2022/06/13 13:03:38;;;;;;;;;;;;;;;26.88;40.28;98081.78;5063017;28;19931;-59
2022/06/13 13:06:11;;;;;;;;;;;;;;;27.14;41.83;98076.31;5063830;28;20000;-60
2022/06/13 13:08:45;;;;;;;;;;;;;;;27.30;41.31;98078.94;5075974;28;19925;-60
2022/06/13 13:11:20;;;;;;;;;;;;;;;27.24;41.36;98072.97;5059901;28;19963;-60
2022/06/13 13:13:49;;;;;;;;;;;;;;;27.44;41.33;98083.88;5066821;28;19994;-60